createdAt,value
2019-04-06T00:00:59.291Z,8.70
2019-04-06T00:03:28.025Z,8.70
2019-04-06T00:05:57.269Z,8.70
2019-04-06T00:08:27.098Z,8.60
2019-04-06T00:10:57.704Z,8.50
2019-04-06T00:13:27.012Z,8.50
2019-04-06T00:15:55.825Z,8.50
2019-04-06T00:18:25.269Z,8.50
2019-04-06T00:20:54.475Z,8.50
2019-04-06T00:23:23.404Z,8.40
2019-04-06T00:25:53.918Z,8.40
2019-04-06T00:28:23.582Z,8.40
2019-04-06T00:31:09.005Z,8.30
2019-04-06T00:33:39.753Z,8.30
2019-04-06T00:36:09.315Z,8.40
2019-04-06T00:38:38.589Z,8.30
2019-04-06T00:41:09.944Z,8.30
2019-04-06T00:43:38.821Z,8.30
2019-04-06T00:46:12.974Z,8.20
2019-04-06T00:48:42.249Z,8.20
2019-04-06T00:51:11.086Z,8.20
2019-04-06T00:53:39.980Z,8.20
2019-04-06T00:56:08.615Z,8.10
2019-04-06T00:58:37.242Z,8.10
2019-04-06T01:01:07.229Z,8.10
2019-04-06T01:03:39.087Z,8.10
2019-04-06T01:06:09.029Z,8.10
2019-04-06T01:08:38.737Z,8.00
2019-04-06T01:11:07.755Z,8.00
2019-04-06T01:13:38.163Z,8.00
2019-04-06T01:16:07.097Z,8.00
2019-04-06T01:18:35.772Z,8.00
2019-04-06T01:21:06.583Z,7.90
2019-04-06T01:23:36.537Z,7.90
2019-04-06T01:26:07.909Z,7.80
2019-04-06T01:28:36.957Z,7.80
2019-04-06T01:31:06.223Z,7.70
2019-04-06T01:33:39.548Z,7.70
2019-04-06T01:36:30.565Z,7.70
2019-04-06T01:38:39.272Z,7.60
2019-04-06T01:41:08.710Z,7.50
2019-04-06T01:43:37.747Z,7.50
2019-04-06T01:46:07.951Z,7.40
2019-04-06T01:48:40.249Z,7.40
2019-04-06T01:51:13.237Z,7.30
2019-04-06T01:53:45.075Z,7.30
2019-04-06T01:56:18.717Z,7.30
2019-04-06T01:58:47.538Z,7.20
2019-04-06T02:01:20.534Z,7.20
2019-04-06T02:03:49.362Z,7.10
2019-04-06T02:06:18.817Z,7.10
2019-04-06T02:08:47.768Z,7.10
2019-04-06T02:11:18.059Z,7.00
2019-04-06T02:13:47.447Z,7.00
2019-04-06T02:16:16.283Z,7.00
2019-04-06T02:18:50.523Z,7.00
2019-04-06T02:21:19.318Z,7.00
2019-04-06T02:23:48.157Z,6.90
2019-04-06T02:26:17.551Z,6.80
2019-04-06T02:28:48.711Z,6.70
2019-04-06T02:31:25.264Z,6.70
2019-04-06T02:34:10.587Z,6.60
2019-04-06T02:37:00.475Z,6.60
2019-04-06T02:39:47.318Z,6.70
2019-04-06T02:42:21.979Z,6.60
2019-04-06T02:44:52.139Z,6.50
2019-04-06T02:47:20.925Z,6.40
2019-04-06T02:49:52.328Z,6.30
2019-04-06T02:52:24.831Z,6.30
2019-04-06T02:54:55.159Z,6.20
2019-04-06T02:57:25.580Z,6.30
2019-04-06T02:59:55.897Z,6.40
2019-04-06T03:02:25.181Z,6.60
2019-04-06T03:04:54.624Z,6.60
2019-04-06T03:07:24.986Z,6.60
2019-04-06T03:09:58.491Z,6.70
2019-04-06T03:12:32.195Z,6.70
2019-04-06T03:14:59.100Z,6.80
2019-04-06T03:17:29.581Z,6.80
2019-04-06T03:19:58.470Z,6.70
2019-04-06T03:22:28.641Z,6.60
2019-04-06T03:25:00.403Z,6.50
2019-04-06T03:27:29.171Z,6.50
2019-04-06T03:29:59.160Z,6.40
2019-04-06T03:32:28.349Z,6.30
2019-04-06T03:34:57.204Z,6.10
2019-04-06T03:37:26.152Z,6.00
2019-04-06T03:39:54.939Z,5.90
2019-04-06T03:42:23.645Z,5.70
2019-04-06T03:44:52.956Z,5.60
2019-04-06T03:47:21.896Z,5.50
2019-04-06T03:49:51.713Z,5.40
2019-04-06T03:52:25.134Z,5.30
2019-04-06T03:54:51.120Z,5.30
2019-04-06T03:57:19.865Z,5.30
2019-04-06T03:59:48.668Z,5.30
2019-04-06T04:02:17.576Z,5.30
2019-04-06T04:04:47.100Z,5.50
2019-04-06T04:07:17.375Z,5.60
2019-04-06T04:09:46.580Z,5.60
2019-04-06T04:12:15.374Z,5.70
2019-04-06T04:14:47.437Z,5.80
2019-04-06T04:17:17.697Z,5.90
2019-04-06T04:19:46.528Z,5.90
2019-04-06T04:22:15.206Z,6.00
2019-04-06T04:24:45.111Z,6.00
2019-04-06T04:27:27.348Z,6.00
2019-04-06T04:29:46.459Z,6.00
2019-04-06T04:32:15.208Z,6.10
2019-04-06T04:34:44.227Z,6.10
2019-04-06T04:37:13.021Z,6.20
2019-04-06T04:39:41.988Z,6.20
2019-04-06T04:42:12.205Z,6.30
2019-04-06T04:44:41.089Z,6.40
2019-04-06T04:47:09.814Z,6.50
2019-04-06T04:49:38.559Z,6.60
2019-04-06T04:52:08.406Z,6.70
2019-04-06T04:54:38.602Z,6.80
2019-04-06T04:57:08.137Z,7.00
2019-04-06T04:59:38.645Z,7.10
2019-04-06T05:02:07.433Z,7.20
2019-04-06T05:04:36.141Z,7.30
2019-04-06T05:07:05.692Z,7.40
2019-04-06T05:09:34.645Z,7.50
2019-04-06T05:12:03.435Z,7.70
2019-04-06T05:15:00.694Z,7.90
2019-04-06T05:17:29.836Z,8.10
2019-04-06T05:19:58.447Z,8.60
2019-04-06T05:22:27.584Z,8.90
2019-04-06T05:24:57.749Z,9.30
2019-04-06T05:27:28.057Z,9.70
2019-04-06T05:30:01.599Z,10.40
2019-04-06T05:32:30.413Z,10.70
2019-04-06T05:34:59.163Z,11.00
2019-04-06T05:40:17.416Z,11.50
2019-04-06T05:42:47.982Z,11.90
2019-04-06T05:45:18.149Z,12.00
2019-04-06T05:47:49.215Z,12.20
2019-04-06T05:50:21.576Z,12.50
2019-04-06T05:52:50.435Z,12.50
2019-04-06T05:55:19.325Z,12.70
2019-04-06T05:57:48.131Z,13.00
2019-04-06T06:00:18.553Z,13.00
2019-04-06T06:02:47.305Z,13.40
2019-04-06T06:05:21.906Z,13.90
2019-04-06T06:07:50.694Z,14.10
2019-04-06T06:10:20.288Z,14.00
2019-04-06T06:12:49.180Z,14.10
2019-04-06T06:15:18.020Z,14.30
2019-04-06T06:17:49.131Z,14.40
2019-04-06T06:20:19.204Z,14.60
2019-04-06T06:22:47.943Z,14.70
2019-04-06T06:25:20.409Z,14.50
2019-04-06T06:27:52.192Z,14.60
2019-04-06T06:30:21.262Z,14.60
2019-04-06T06:32:50.725Z,14.60
2019-04-06T06:35:19.964Z,15.00
2019-04-06T06:37:53.379Z,15.30
2019-04-06T06:40:26.702Z,15.70
2019-04-06T06:42:58.318Z,15.90
2019-04-06T06:45:33.448Z,16.00
2019-04-06T06:48:02.360Z,16.20
2019-04-06T06:50:34.762Z,16.10
2019-04-06T06:53:05.138Z,16.20
2019-04-06T06:55:35.850Z,16.00
2019-04-06T06:58:09.073Z,15.80
2019-04-06T07:00:43.279Z,15.90
2019-04-06T07:03:14.989Z,16.00
2019-04-06T07:05:46.628Z,16.30
2019-04-06T07:08:15.320Z,16.40
2019-04-06T07:10:45.912Z,17.10
2019-04-06T07:13:14.604Z,17.40
2019-04-06T07:15:44.775Z,17.90
2019-04-06T07:18:15.418Z,17.90
2019-04-06T07:20:45.483Z,17.90
2019-04-06T07:23:15.719Z,17.50
2019-04-06T07:25:56.834Z,17.80
2019-04-06T07:28:18.483Z,18.10
2019-04-06T07:30:49.184Z,18.10
2019-04-06T07:33:20.063Z,17.90
2019-04-06T07:35:51.692Z,18.10
2019-04-06T07:38:21.957Z,18.00
2019-04-06T07:40:55.373Z,17.70
2019-04-06T07:43:31.791Z,18.00
2019-04-06T07:46:03.132Z,18.60
2019-04-06T07:48:32.601Z,19.40
2019-04-06T07:51:04.867Z,19.70
2019-04-06T07:53:41.540Z,19.90
2019-04-06T07:56:24.104Z,19.60
2019-04-06T07:59:02.736Z,19.70
2019-04-06T08:01:37.111Z,19.90
2019-04-06T08:04:26.127Z,20.50
2019-04-06T08:06:58.818Z,20.40
2019-04-06T08:09:27.897Z,20.70
2019-04-06T08:11:59.060Z,20.90
2019-04-06T08:14:29.195Z,20.90
2019-04-06T08:17:00.911Z,20.80
2019-04-06T08:19:31.355Z,20.60
2019-04-06T08:22:02.695Z,20.60
2019-04-06T08:24:33.768Z,20.60
2019-04-06T08:27:06.008Z,20.50
2019-04-06T08:29:36.082Z,20.70
2019-04-06T08:32:08.025Z,20.30
2019-04-06T08:34:42.418Z,20.20
2019-04-06T08:37:12.175Z,20.10
2019-04-06T08:39:52.093Z,19.80
2019-04-06T08:42:24.037Z,19.90
2019-04-06T08:44:54.679Z,19.80
2019-04-06T08:47:24.746Z,19.50
2019-04-06T08:49:55.081Z,19.10
2019-04-06T08:52:26.805Z,19.30
2019-04-06T08:54:55.596Z,19.00
2019-04-06T08:57:24.638Z,19.00
2019-04-06T08:59:55.872Z,18.80
2019-04-06T09:02:30.768Z,19.00
2019-04-06T09:05:01.171Z,19.00
2019-04-06T09:07:31.548Z,19.20
2019-04-06T09:10:04.699Z,19.50
2019-04-06T09:12:39.803Z,19.20
2019-04-06T09:15:17.908Z,19.30
2019-04-06T09:17:51.814Z,19.60
2019-04-06T09:20:22.086Z,20.20
2019-04-06T09:22:54.128Z,20.30
2019-04-06T09:25:28.440Z,20.30
2019-04-06T09:27:57.168Z,19.90
2019-04-06T09:30:27.422Z,20.20
2019-04-06T09:32:56.092Z,19.90
2019-04-06T09:35:26.966Z,20.20
2019-04-06T09:37:55.782Z,20.60
2019-04-06T09:40:30.289Z,20.30
2019-04-06T09:42:59.951Z,20.10
2019-04-06T09:45:42.308Z,19.70
2019-04-06T09:48:19.437Z,19.70
2019-04-06T09:51:05.746Z,19.70
2019-04-06T09:53:51.024Z,19.70
2019-04-06T09:56:39.372Z,20.00
2019-04-06T09:59:20.561Z,20.30
2019-04-06T10:01:50.824Z,20.90
2019-04-06T10:04:24.328Z,20.80
2019-04-06T10:07:19.329Z,20.50
2019-04-06T10:10:10.033Z,20.90
2019-04-06T10:12:41.424Z,21.30
2019-04-06T10:15:15.787Z,21.00
2019-04-06T10:18:07.627Z,20.60
2019-04-06T10:20:48.410Z,20.70
2019-04-06T10:23:45.736Z,20.70
2019-04-06T10:26:19.130Z,20.80
2019-04-06T10:29:05.169Z,20.90
2019-04-06T10:31:53.270Z,20.90
2019-04-06T10:34:27.773Z,20.80
2019-04-06T10:37:14.494Z,20.90
2019-04-06T10:39:53.549Z,20.70
2019-04-06T10:42:30.525Z,20.90
2019-04-06T10:45:04.994Z,21.10
2019-04-06T10:47:39.786Z,20.80
2019-04-06T10:50:16.311Z,20.80
2019-04-06T10:53:01.488Z,20.90
2019-04-06T10:55:35.366Z,21.00
2019-04-06T10:58:12.672Z,21.20
2019-04-06T11:00:42.998Z,21.30
2019-04-06T11:03:18.863Z,21.40
2019-04-06T11:05:55.606Z,21.00
2019-04-06T11:08:43.419Z,21.00
2019-04-06T11:11:20.128Z,20.60
2019-04-06T11:13:56.333Z,20.60
2019-04-06T11:16:31.903Z,20.80
2019-04-06T11:19:19.488Z,20.70
2019-04-06T11:21:54.402Z,20.40
2019-04-06T11:24:47.459Z,20.20
2019-04-06T11:27:22.920Z,20.00
2019-04-06T11:30:14.717Z,19.60
2019-04-06T11:33:01.099Z,19.40
2019-04-06T11:35:49.628Z,19.40
2019-04-06T11:38:35.822Z,19.40
2019-04-06T11:44:14.436Z,19.40
2019-04-06T11:46:47.338Z,19.50
2019-04-06T11:49:20.147Z,19.60
2019-04-06T11:51:57.863Z,19.40
2019-04-06T11:54:34.903Z,19.10
2019-04-06T11:57:11.010Z,18.90
2019-04-06T11:59:59.649Z,19.10
2019-04-06T12:02:43.111Z,19.00
2019-04-06T12:05:30.455Z,19.00
2019-04-06T12:08:02.573Z,19.20
2019-04-06T12:10:54.195Z,19.30
2019-04-06T12:13:32.836Z,19.50
2019-04-06T12:16:04.510Z,19.60
2019-04-06T12:18:54.691Z,19.70
2019-04-06T12:21:31.950Z,19.40
2019-04-06T12:24:07.228Z,19.20
2019-04-06T12:26:55.355Z,19.30
2019-04-06T12:29:26.888Z,19.20
2019-04-06T12:32:02.547Z,19.30
2019-04-06T12:34:36.114Z,19.70
2019-04-06T12:37:26.121Z,19.80
2019-04-06T12:40:11.035Z,19.80
2019-04-06T12:42:41.512Z,19.60
2019-04-06T12:45:16.692Z,19.60
2019-04-06T12:47:52.665Z,19.40
2019-04-06T12:50:42.011Z,19.20
2019-04-06T12:53:14.276Z,19.10
2019-04-06T12:55:51.923Z,19.10
2019-04-06T12:58:45.264Z,19.10
2019-04-06T13:01:34.300Z,19.20
2019-04-06T13:04:28.415Z,19.30
2019-04-06T13:07:22.058Z,19.40
2019-04-06T13:10:10.653Z,19.20
2019-04-06T13:12:50.949Z,19.00
2019-04-06T13:15:35.403Z,19.10
2019-04-06T13:18:19.510Z,19.40
2019-04-06T13:20:53.183Z,19.50
2019-04-06T13:23:35.562Z,19.40
2019-04-06T13:26:25.198Z,19.10
2019-04-06T13:29:09.675Z,18.70
2019-04-06T13:31:49.996Z,18.40
2019-04-06T13:34:26.440Z,18.30
2019-04-06T13:36:59.814Z,18.20
2019-04-06T13:39:47.414Z,18.20
2019-04-06T13:42:27.285Z,18.10
2019-04-06T13:45:17.028Z,17.90
2019-04-06T13:47:51.855Z,17.90
2019-04-06T13:50:25.276Z,17.90
2019-04-06T13:53:04.870Z,17.80
2019-04-06T13:55:40.986Z,17.80
2019-04-06T13:58:25.595Z,17.60
2019-04-06T14:01:16.231Z,17.70
2019-04-06T14:04:03.730Z,17.70
2019-04-06T14:07:00.821Z,17.60
2019-04-06T14:09:37.655Z,17.70
2019-04-06T14:12:17.772Z,17.60
2019-04-06T14:14:58.780Z,17.60
2019-04-06T14:17:51.338Z,17.60
2019-04-06T14:20:26.463Z,17.60
2019-04-06T14:23:17.241Z,17.50
2019-04-06T14:25:59.995Z,17.50
2019-04-06T14:28:40.469Z,17.50
2019-04-06T14:31:27.953Z,17.50
2019-04-06T14:33:53.197Z,17.30
2019-04-06T14:36:24.636Z,17.20
2019-04-06T14:39:07.456Z,17.20
2019-04-06T14:41:40.711Z,17.20
2019-04-06T14:44:20.020Z,17.20
2019-04-06T14:46:53.895Z,17.20
2019-04-06T14:49:43.649Z,17.20
2019-04-06T14:52:31.752Z,17.20
2019-04-06T14:55:02.481Z,17.10
2019-04-06T14:57:34.952Z,17.10
2019-04-06T15:00:25.766Z,17.00
2019-04-06T15:03:12.717Z,17.00
2019-04-06T15:05:45.386Z,17.00
2019-04-06T15:08:26.928Z,17.00
2019-04-06T15:11:08.732Z,17.00
2019-04-06T15:13:45.198Z,17.00
2019-04-06T15:16:18.341Z,17.00
2019-04-06T15:18:55.622Z,16.90
2019-04-06T15:21:33.311Z,17.00
2019-04-06T15:24:06.255Z,17.00
2019-04-06T15:26:43.132Z,17.00
2019-04-06T15:29:40.161Z,17.00
2019-04-06T15:32:25.739Z,16.90
2019-04-06T15:37:56.788Z,16.90
2019-04-06T15:40:44.534Z,16.80
2019-04-06T15:43:33.913Z,16.80
2019-04-06T15:46:26.127Z,16.70
2019-04-06T15:49:12.796Z,16.70
2019-04-06T15:52:11.023Z,16.60
2019-04-06T15:54:38.093Z,16.60
2019-04-06T15:57:37.333Z,16.60
2019-04-06T16:00:10.651Z,16.60
2019-04-06T16:03:01.381Z,16.50
2019-04-06T16:05:36.368Z,16.40
2019-04-06T16:08:12.431Z,16.40
2019-04-06T16:10:54.358Z,16.30
2019-04-06T16:13:24.608Z,16.30
2019-04-06T16:16:01.590Z,16.20
2019-04-06T16:18:46.219Z,16.20
2019-04-06T16:21:35.357Z,16.10
2019-04-06T16:24:13.733Z,16.00
2019-04-06T16:27:00.135Z,16.00
2019-04-06T16:29:31.170Z,15.90
2019-04-06T16:32:11.538Z,15.90
2019-04-06T16:34:44.600Z,15.80
2019-04-06T16:37:28.639Z,15.70
2019-04-06T16:40:03.864Z,15.60
2019-04-06T16:42:45.233Z,15.60
2019-04-06T16:45:26.402Z,15.50
2019-04-06T16:48:04.981Z,15.40
2019-04-06T16:50:37.609Z,15.30
2019-04-06T16:53:09.575Z,15.30
2019-04-06T16:55:42.758Z,15.20
2019-04-06T16:58:15.844Z,15.20
2019-04-06T17:00:56.572Z,15.10
2019-04-06T17:03:35.640Z,15.00
2019-04-06T17:06:12.036Z,14.90
2019-04-06T17:08:59.957Z,14.80
2019-04-06T17:11:33.923Z,14.70
2019-04-06T17:14:16.278Z,14.60
2019-04-06T17:17:06.222Z,14.50
2019-04-06T17:19:55.415Z,14.40
2019-04-06T17:22:33.586Z,14.30
2019-04-06T17:25:14.687Z,14.30
2019-04-06T17:28:04.315Z,14.20
2019-04-06T17:30:38.258Z,14.10
2019-04-06T17:33:27.268Z,14.00
2019-04-06T17:36:17.974Z,13.80
2019-04-06T17:38:53.393Z,13.70
2019-04-06T17:41:27.033Z,13.70
2019-04-06T17:44:02.377Z,13.70
2019-04-06T17:46:54.801Z,13.70
2019-04-06T17:49:42.810Z,13.60
2019-04-06T17:52:30.656Z,13.50
2019-04-06T17:55:19.187Z,13.50
2019-04-06T17:57:54.905Z,13.40
2019-04-06T18:00:32.982Z,13.40
2019-04-06T18:03:25.226Z,13.20
2019-04-06T18:06:05.850Z,13.20
2019-04-06T18:08:48.504Z,13.10
2019-04-06T18:11:29.538Z,13.10
2019-04-06T18:14:03.050Z,13.00
2019-04-06T18:16:35.312Z,13.00
2019-04-06T18:19:07.342Z,12.90
2019-04-06T18:21:51.716Z,12.90
2019-04-06T18:24:22.813Z,12.80
2019-04-06T18:27:01.698Z,12.80
2019-04-06T18:29:30.931Z,12.80
2019-04-06T18:32:03.964Z,12.70
2019-04-06T18:34:36.572Z,12.70
2019-04-06T18:37:24.608Z,12.60
2019-04-06T18:39:54.824Z,12.60
2019-04-06T18:42:26.523Z,12.50
2019-04-06T18:44:59.905Z,12.40
2019-04-06T18:47:32.430Z,12.40
2019-04-06T18:50:02.715Z,12.30
2019-04-06T18:52:38.425Z,12.30
2019-04-06T18:55:14.873Z,12.20
2019-04-06T18:58:08.652Z,12.20
2019-04-06T19:00:31.122Z,12.20
2019-04-06T19:03:15.099Z,12.00
2019-04-06T19:05:43.346Z,11.90
2019-04-06T19:08:15.742Z,11.80
2019-04-06T19:10:48.649Z,11.70
2019-04-06T19:13:23.291Z,11.60
2019-04-06T19:15:58.405Z,11.60
2019-04-06T19:18:28.705Z,11.50
2019-04-06T19:21:03.982Z,11.40
2019-04-06T19:23:41.159Z,11.30
2019-04-06T19:26:15.054Z,11.10
2019-04-06T19:28:49.339Z,11.00
2019-04-06T19:34:14.007Z,10.70
2019-04-06T19:36:43.197Z,10.60
2019-04-06T19:39:20.063Z,10.40
2019-04-06T19:41:51.114Z,10.20
2019-04-06T19:44:24.919Z,10.10
2019-04-06T19:47:00.930Z,10.00
2019-04-06T19:49:42.482Z,10.00
2019-04-06T19:52:19.863Z,9.90
2019-04-06T19:54:55.750Z,9.90
2019-04-06T19:57:30.581Z,9.90
2019-04-06T20:00:06.785Z,9.80
2019-04-06T20:02:47.427Z,9.70
2019-04-06T20:05:31.868Z,9.60
2019-04-06T20:08:06.022Z,9.50
2019-04-06T20:10:44.141Z,9.50
2019-04-06T20:13:15.649Z,9.50
2019-04-06T20:15:50.644Z,9.50
2019-04-06T20:18:26.291Z,9.50
2019-04-06T20:21:06.343Z,9.50
2019-04-06T20:23:38.016Z,9.60
2019-04-06T20:26:07.812Z,9.70
2019-04-06T20:28:44.640Z,9.60
2019-04-06T20:31:15.015Z,9.60
2019-04-06T20:33:52.324Z,9.60
2019-04-06T20:36:30.611Z,9.50
2019-04-06T20:39:02.174Z,9.50
2019-04-06T20:41:35.773Z,9.50
2019-04-06T20:44:06.378Z,9.50
2019-04-06T20:46:36.211Z,9.50
2019-04-06T20:49:10.871Z,9.30
2019-04-06T20:51:41.261Z,9.30
2019-04-06T20:54:15.339Z,9.20
2019-04-06T20:56:56.375Z,9.20
2019-04-06T21:02:19.843Z,9.20
2019-04-06T21:05:05.634Z,9.10
2019-04-06T21:07:35.995Z,9.10
2019-04-06T21:10:14.084Z,9.10
2019-04-06T21:12:47.639Z,9.10
2019-04-06T21:15:21.191Z,9.10
2019-04-06T21:17:53.932Z,9.10
2019-04-06T21:20:26.522Z,9.00
2019-04-06T21:23:13.875Z,8.90
2019-04-06T21:25:48.061Z,8.90
2019-04-06T21:28:24.502Z,8.80
2019-04-06T21:31:04.644Z,8.60
2019-04-06T21:33:34.195Z,8.60
2019-04-06T21:36:07.263Z,8.50
2019-04-06T21:38:41.529Z,8.60
2019-04-06T21:41:24.598Z,8.60
2019-04-06T21:44:00.052Z,8.50
2019-04-06T21:46:32.660Z,8.50
2019-04-06T21:49:11.560Z,8.50
2019-04-06T21:51:47.140Z,8.50
2019-04-06T21:54:21.056Z,8.50
2019-04-06T21:56:50.200Z,8.50
2019-04-06T21:59:23.452Z,8.60
2019-04-06T22:01:55.852Z,8.70
2019-04-06T22:04:31.571Z,8.70
2019-04-06T22:07:06.417Z,8.70
2019-04-06T22:09:42.629Z,8.70
2019-04-06T22:12:08.589Z,8.70
2019-04-06T22:14:39.661Z,8.70
2019-04-06T22:17:12.079Z,8.70
2019-04-06T22:19:41.014Z,8.60
2019-04-06T22:22:16.826Z,8.50
2019-04-06T22:24:48.467Z,8.50
2019-04-06T22:27:19.537Z,8.40
2019-04-06T22:29:49.908Z,8.30
2019-04-06T22:32:20.911Z,8.20
2019-04-06T22:34:52.337Z,8.10
2019-04-06T22:37:22.427Z,8.00
2019-04-06T22:39:55.068Z,7.90
2019-04-06T22:42:23.874Z,7.80
2019-04-06T22:44:55.971Z,7.80
2019-04-06T22:47:31.341Z,7.60
2019-04-06T22:50:02.636Z,7.40
2019-04-06T22:52:33.598Z,7.30
2019-04-06T22:55:04.046Z,7.10
2019-04-06T22:57:41.050Z,7.00
2019-04-06T23:00:16.774Z,6.80
2019-04-06T23:03:07.073Z,6.70
2019-04-06T23:05:42.817Z,6.70
2019-04-06T23:08:14.592Z,6.70
2019-04-06T23:10:47.594Z,6.70
2019-04-06T23:13:17.698Z,6.70
2019-04-06T23:15:51.959Z,6.60
2019-04-06T23:18:25.681Z,6.50
2019-04-06T23:20:54.005Z,6.40
2019-04-06T23:23:24.762Z,6.20
2019-04-06T23:26:05.187Z,6.10
2019-04-06T23:28:36.765Z,6.00
2019-04-06T23:31:11.142Z,6.00
2019-04-06T23:33:41.283Z,5.90
2019-04-06T23:36:13.440Z,5.90
2019-04-06T23:44:26.208Z,5.80
2019-04-06T23:47:00.455Z,5.60
2019-04-06T23:49:30.262Z,5.50
2019-04-06T23:51:59.001Z,5.50
2019-04-06T23:54:28.085Z,5.40
2019-04-06T23:56:59.127Z,5.50
2019-04-06T23:59:29.913Z,5.50
